createdAt,value
2023-05-19T00:00:21.377Z,354.03
2023-05-19T00:02:26.217Z,342.03
2023-05-19T00:04:30.110Z,342.57
2023-05-19T00:06:34.474Z,348.50
2023-05-19T00:08:39.247Z,342.77
2023-05-19T00:10:43.205Z,344.93
2023-05-19T00:12:46.393Z,344.03
2023-05-19T00:14:51.950Z,340.60
2023-05-19T00:16:56.131Z,341.17
2023-05-19T00:19:00.601Z,474.50
2023-05-19T00:21:03.738Z,339.73
2023-05-19T00:23:06.970Z,340.77
2023-05-19T00:25:11.092Z,339.80
2023-05-19T00:27:14.185Z,340.80
2023-05-19T00:29:18.655Z,341.10
2023-05-19T00:31:24.052Z,342.87
2023-05-19T00:33:27.238Z,341.27
2023-05-19T00:35:30.465Z,342.07
2023-05-19T00:37:34.361Z,340.43
2023-05-19T00:39:37.423Z,341.13
2023-05-19T00:41:40.632Z,450.63
2023-05-19T00:43:43.732Z,341.03
2023-05-19T00:45:46.990Z,1146.17
2023-05-19T00:47:51.539Z,421.00
2023-05-19T00:49:54.725Z,827.47
2023-05-19T00:51:58.336Z,344.73
2023-05-19T00:54:02.188Z,371.23
2023-05-19T00:56:05.886Z,342.77
2023-05-19T00:58:11.328Z,346.20
2023-05-19T01:00:15.568Z,644.13
2023-05-19T01:02:19.264Z,361.23
2023-05-19T01:04:25.645Z,344.87
2023-05-19T01:06:29.627Z,342.87
2023-05-19T01:08:33.478Z,475.63
2023-05-19T01:10:36.710Z,424.57
2023-05-19T01:12:41.899Z,513.70
2023-05-19T01:14:45.425Z,344.27
2023-05-19T01:16:52.530Z,341.50
2023-05-19T01:19:02.057Z,632.20
2023-05-19T01:21:19.265Z,371.87
2023-05-19T01:23:36.650Z,341.20
2023-05-19T01:26:14.550Z,340.67
2023-05-19T01:28:31.547Z,345.30
2023-05-19T01:30:38.654Z,343.43
2023-05-19T01:32:45.054Z,343.67
2023-05-19T01:34:50.713Z,341.77
2023-05-19T01:36:55.831Z,371.80
2023-05-19T01:39:00.916Z,341.37
2023-05-19T01:41:04.932Z,341.77
2023-05-19T01:43:09.391Z,341.97
2023-05-19T01:45:13.508Z,340.43
2023-05-19T01:47:18.969Z,395.23
2023-05-19T01:49:22.175Z,343.10
2023-05-19T01:51:25.308Z,373.20
2023-05-19T01:53:28.468Z,342.40
2023-05-19T01:55:31.707Z,340.60
2023-05-19T01:57:39.096Z,340.80
2023-05-19T01:59:47.558Z,340.40
2023-05-19T02:01:53.740Z,341.90
2023-05-19T02:04:14.560Z,341.10
2023-05-19T02:06:34.403Z,362.37
2023-05-19T02:08:44.525Z,345.67
2023-05-19T02:10:52.931Z,340.97
2023-05-19T02:13:01.340Z,341.47
2023-05-19T02:15:10.754Z,346.20
2023-05-19T02:17:14.390Z,345.33
2023-05-19T02:19:26.978Z,344.33
2023-05-19T02:21:31.691Z,340.80
2023-05-19T02:23:34.789Z,341.80
2023-05-19T02:25:38.134Z,356.63
2023-05-19T02:27:42.581Z,343.73
2023-05-19T02:29:46.077Z,347.63
2023-05-19T02:31:49.543Z,341.40
2023-05-19T02:33:52.629Z,342.93
2023-05-19T02:35:57.271Z,342.73
2023-05-19T02:38:00.481Z,345.03
2023-05-19T02:40:04.265Z,340.80
2023-05-19T02:42:07.576Z,389.07
2023-05-19T02:44:10.648Z,344.87
2023-05-19T02:46:14.140Z,341.20
2023-05-19T02:48:17.275Z,343.27
2023-05-19T02:50:20.418Z,361.03
2023-05-19T02:52:25.037Z,339.70
2023-05-19T02:54:28.074Z,342.20
2023-05-19T02:56:31.135Z,340.97
2023-05-19T02:58:34.150Z,345.63
2023-05-19T03:00:37.238Z,345.53
2023-05-19T03:02:41.402Z,344.77
2023-05-19T03:04:45.639Z,341.97
2023-05-19T03:06:48.806Z,342.83
2023-05-19T03:08:53.192Z,340.17
2023-05-19T03:10:56.366Z,346.90
2023-05-19T03:12:59.578Z,340.77
2023-05-19T03:15:02.678Z,342.83
2023-05-19T03:17:07.776Z,388.37
2023-05-19T03:19:11.174Z,375.00
2023-05-19T03:21:14.344Z,346.07
2023-05-19T03:23:17.539Z,344.63
2023-05-19T03:25:22.086Z,405.77
2023-05-19T03:27:25.902Z,343.00
2023-05-19T03:29:28.989Z,340.43
2023-05-19T03:31:32.114Z,340.63
2023-05-19T03:33:36.052Z,345.57
2023-05-19T03:35:39.182Z,340.93
2023-05-19T03:37:42.631Z,343.47
2023-05-19T03:39:45.658Z,375.50
2023-05-19T03:41:50.165Z,361.83
2023-05-19T03:43:53.408Z,355.47
2023-05-19T03:45:56.487Z,350.93
2023-05-19T03:48:20.390Z,376.27
2023-05-19T03:50:44.472Z,402.33
2023-05-19T03:52:58.932Z,348.10
2023-05-19T03:55:09.044Z,342.97
2023-05-19T03:57:13.754Z,343.53
2023-05-19T03:59:17.186Z,341.30
2023-05-19T04:01:20.361Z,398.27
2023-05-19T04:03:23.824Z,346.27
2023-05-19T04:05:27.118Z,364.13
2023-05-19T04:07:30.284Z,345.60
2023-05-19T04:09:35.345Z,344.90
2023-05-19T04:11:39.678Z,344.17
2023-05-19T04:13:45.293Z,341.20
2023-05-19T04:15:48.858Z,347.60
2023-05-19T04:17:52.062Z,343.40
2023-05-19T04:19:55.151Z,341.13
2023-05-19T04:21:58.722Z,366.43
2023-05-19T04:24:01.763Z,344.90
2023-05-19T04:26:06.718Z,374.00
2023-05-19T04:28:09.858Z,354.93
2023-05-19T04:30:22.019Z,345.77
2023-05-19T04:32:25.735Z,342.73
2023-05-19T04:34:29.908Z,344.83
2023-05-19T04:36:34.079Z,341.50
2023-05-19T04:38:39.928Z,342.93
2023-05-19T04:40:45.154Z,342.53
2023-05-19T04:42:49.827Z,354.63
2023-05-19T04:44:53.056Z,341.10
2023-05-19T04:47:00.153Z,342.73
2023-05-19T04:49:03.367Z,372.20
2023-05-19T04:51:07.564Z,341.47
2023-05-19T04:53:11.466Z,341.63
2023-05-19T04:55:15.312Z,358.20
2023-05-19T04:57:18.527Z,341.70
2023-05-19T04:59:23.263Z,369.27
2023-05-19T05:01:27.098Z,372.10
2023-05-19T05:03:34.562Z,342.10
2023-05-19T05:05:37.758Z,341.50
2023-05-19T05:07:40.962Z,342.30
2023-05-19T05:09:44.373Z,343.00
2023-05-19T05:11:48.916Z,342.80
2023-05-19T05:13:52.492Z,383.60
2023-05-19T05:15:56.238Z,341.13
2023-05-19T05:18:00.501Z,343.70
2023-05-19T05:20:06.999Z,341.57
2023-05-19T05:22:11.055Z,341.83
2023-05-19T05:24:17.109Z,339.97
2023-05-19T05:26:29.689Z,342.43
2023-05-19T05:28:32.765Z,366.20
2023-05-19T05:30:36.206Z,347.40
2023-05-19T05:32:41.198Z,323.63
2023-05-19T05:34:52.443Z,341.77
2023-05-19T05:36:56.908Z,426.53
2023-05-19T05:39:00.253Z,242.93
2023-05-19T05:41:03.755Z,305.30
2023-05-19T05:43:07.812Z,275.87
2023-05-19T05:45:16.392Z,303.33
2023-05-19T05:47:20.196Z,344.17
2023-05-19T05:49:24.026Z,343.67
2023-05-19T05:51:27.759Z,204.10
2023-05-19T05:53:34.592Z,358.27
2023-05-19T05:55:38.620Z,273.10
2023-05-19T05:57:43.237Z,208.27
2023-05-19T05:59:47.192Z,279.87
2023-05-19T06:01:51.092Z,599.67
2023-05-19T06:03:55.337Z,100.93
2023-05-19T06:06:00.423Z,126.17
2023-05-19T06:08:03.656Z,110.87
2023-05-19T06:10:09.954Z,105.73
2023-05-19T06:12:13.136Z,124.00
2023-05-19T06:14:22.365Z,150.63
2023-05-19T06:16:51.637Z,68.03
2023-05-19T06:18:55.074Z,131.67
2023-05-19T06:20:58.365Z,105.03
2023-05-19T06:23:02.191Z,71.03
2023-05-19T06:25:07.059Z,75.20
2023-05-19T06:27:11.616Z,81.37
2023-05-19T06:29:14.746Z,120.03
2023-05-19T06:31:18.322Z,80.83
2023-05-19T06:33:30.681Z,128.33
2023-05-19T06:35:33.856Z,230.10
2023-05-19T06:37:37.369Z,61.20
2023-05-19T06:39:40.609Z,51.30
2023-05-19T06:41:43.667Z,61.07
2023-05-19T06:44:00.867Z,102.40
2023-05-19T06:46:07.683Z,72.90
2023-05-19T06:48:10.940Z,58.40
2023-05-19T06:50:14.659Z,52.90
2023-05-19T06:52:18.983Z,109.70
2023-05-19T06:54:22.078Z,140.90
2023-05-19T06:56:25.497Z,61.90
2023-05-19T06:58:28.855Z,64.80
2023-05-19T07:00:34.403Z,60.87
2023-05-19T07:02:38.162Z,76.43
2023-05-19T07:04:42.603Z,43.33
2023-05-19T07:06:47.856Z,74.23
2023-05-19T07:08:51.082Z,82.87
2023-05-19T07:10:56.023Z,86.17
2023-05-19T07:12:59.420Z,82.83
2023-05-19T07:15:07.963Z,77.20
2023-05-19T07:17:13.201Z,66.43
2023-05-19T07:19:20.224Z,62.03
2023-05-19T07:21:23.521Z,57.30
2023-05-19T07:23:27.367Z,78.60
2023-05-19T07:25:31.296Z,71.87
2023-05-19T07:27:34.604Z,93.77
2023-05-19T07:29:38.122Z,90.60
2023-05-19T07:31:41.385Z,75.73
2023-05-19T07:33:46.134Z,89.47
2023-05-19T07:35:49.895Z,129.00
2023-05-19T07:37:53.510Z,60.80
2023-05-19T07:39:56.741Z,77.37
2023-05-19T07:41:59.914Z,62.30
2023-05-19T07:44:07.506Z,98.77
2023-05-19T07:46:10.920Z,74.00
2023-05-19T07:48:14.119Z,80.47
2023-05-19T07:50:18.622Z,80.87
2023-05-19T07:52:21.730Z,68.03
2023-05-19T07:54:24.977Z,73.40
2023-05-19T07:56:28.177Z,75.37
2023-05-19T07:58:32.045Z,86.10
2023-05-19T08:00:35.632Z,83.97
2023-05-19T08:02:38.921Z,59.07
2023-05-19T08:04:42.631Z,64.57
2023-05-19T08:06:47.210Z,93.47
2023-05-19T08:08:50.296Z,64.77
2023-05-19T08:10:53.491Z,72.83
2023-05-19T08:12:56.602Z,85.97
2023-05-19T08:15:01.381Z,102.80
2023-05-19T08:17:04.988Z,61.43
2023-05-19T08:19:08.639Z,57.90
2023-05-19T08:21:11.815Z,61.53
2023-05-19T08:23:16.313Z,70.60
2023-05-19T08:25:19.915Z,73.17
2023-05-19T08:27:23.050Z,76.43
2023-05-19T08:29:26.348Z,68.63
2023-05-19T08:31:29.521Z,81.83
2023-05-19T08:33:32.766Z,74.63
2023-05-19T08:35:35.893Z,86.50
2023-05-19T08:37:39.033Z,80.00
2023-05-19T08:39:43.717Z,352.83
2023-05-19T08:41:46.833Z,82.40
2023-05-19T08:43:50.146Z,89.60
2023-05-19T08:45:54.278Z,61.80
2023-05-19T08:47:57.648Z,99.97
2023-05-19T08:50:04.996Z,85.00
2023-05-19T08:52:15.697Z,88.60
2023-05-19T08:54:21.810Z,595.63
2023-05-19T08:56:26.914Z,68.17
2023-05-19T08:58:30.314Z,100.27
2023-05-19T09:00:34.212Z,68.17
2023-05-19T09:02:50.391Z,93.07
2023-05-19T09:05:03.212Z,72.07
2023-05-19T09:07:07.058Z,79.83
2023-05-19T09:09:11.434Z,58.73
2023-05-19T09:11:15.045Z,76.77
2023-05-19T09:13:19.710Z,81.83
2023-05-19T09:15:24.037Z,62.73
2023-05-19T09:17:27.409Z,63.43
2023-05-19T09:19:30.994Z,75.83
2023-05-19T09:21:34.568Z,66.43
2023-05-19T09:23:37.713Z,77.20
2023-05-19T09:25:48.044Z,65.60
2023-05-19T09:27:51.547Z,68.57
2023-05-19T09:29:56.146Z,128.03
2023-05-19T09:32:01.052Z,70.77
2023-05-19T09:34:04.412Z,75.03
2023-05-19T09:36:08.577Z,94.73
2023-05-19T09:38:18.652Z,78.83
2023-05-19T09:40:22.023Z,80.60
2023-05-19T09:42:30.332Z,375.53
2023-05-19T09:44:33.755Z,79.17
2023-05-19T09:46:38.568Z,58.83
2023-05-19T09:48:41.618Z,96.47
2023-05-19T09:50:46.728Z,83.07
2023-05-19T09:52:50.334Z,68.23
2023-05-19T09:54:56.285Z,94.47
2023-05-19T09:57:00.178Z,78.27
2023-05-19T09:59:05.068Z,77.43
2023-05-19T10:01:08.370Z,110.97
2023-05-19T10:03:13.781Z,88.07
2023-05-19T10:05:20.076Z,99.93
2023-05-19T10:07:25.228Z,92.40
2023-05-19T10:09:30.214Z,74.50
2023-05-19T10:11:33.465Z,79.37
2023-05-19T10:13:38.531Z,49.97
2023-05-19T10:15:57.074Z,75.23
2023-05-19T10:18:02.066Z,77.40
2023-05-19T10:20:10.343Z,78.40
2023-05-19T10:22:13.479Z,96.63
2023-05-19T10:24:16.707Z,62.60
2023-05-19T10:26:20.023Z,73.03
2023-05-19T10:28:25.564Z,89.47
2023-05-19T10:30:31.256Z,80.93
2023-05-19T10:32:34.912Z,85.37
2023-05-19T10:35:07.557Z,76.17
2023-05-19T10:37:17.874Z,82.23
2023-05-19T10:39:27.956Z,102.23
2023-05-19T10:41:36.426Z,89.07
2023-05-19T10:43:48.603Z,77.13
2023-05-19T10:45:53.454Z,76.70
2023-05-19T10:47:56.846Z,96.13
2023-05-19T10:50:01.658Z,72.07
2023-05-19T10:52:05.329Z,81.47
2023-05-19T10:54:14.285Z,94.17
2023-05-19T10:56:33.007Z,88.10
2023-05-19T10:58:50.795Z,77.20
2023-05-19T11:01:01.446Z,104.07
2023-05-19T11:03:14.808Z,72.87
2023-05-19T11:05:19.587Z,87.67
2023-05-19T11:07:24.695Z,57.93
2023-05-19T11:09:39.619Z,82.23
2023-05-19T11:11:48.129Z,206.00
2023-05-19T11:13:52.509Z,90.30
2023-05-19T11:15:57.411Z,75.37
2023-05-19T11:18:02.598Z,74.10
2023-05-19T11:20:09.748Z,92.87
2023-05-19T11:22:13.880Z,82.33
2023-05-19T11:24:36.097Z,79.10
2023-05-19T11:26:43.173Z,90.43
2023-05-19T11:28:46.882Z,74.37
2023-05-19T11:30:51.754Z,110.87
2023-05-19T11:32:55.704Z,87.07
2023-05-19T11:34:59.166Z,78.40
2023-05-19T11:37:02.812Z,86.83
2023-05-19T11:39:07.140Z,72.93
2023-05-19T11:41:11.557Z,80.77
2023-05-19T11:43:14.790Z,90.90
2023-05-19T11:45:17.904Z,1196.90
2023-05-19T11:47:21.744Z,65.37
2023-05-19T11:49:24.812Z,101.27
2023-05-19T11:51:27.894Z,76.63
2023-05-19T11:53:33.280Z,65.57
2023-05-19T11:55:43.482Z,90.30
2023-05-19T11:58:03.943Z,85.83
2023-05-19T12:00:09.250Z,90.43
2023-05-19T12:02:18.638Z,114.27
2023-05-19T12:04:21.716Z,40.42
2023-05-19T12:06:24.875Z,66.07
2023-05-19T12:08:28.231Z,66.37
2023-05-19T12:10:33.927Z,82.43
2023-05-19T12:12:37.107Z,75.47
2023-05-19T12:14:41.706Z,95.10
2023-05-19T12:16:45.047Z,96.30
2023-05-19T12:18:48.312Z,104.77
2023-05-19T12:20:53.210Z,66.43
2023-05-19T12:22:56.879Z,77.60
2023-05-19T12:25:01.803Z,139.20
2023-05-19T12:27:11.176Z,102.03
2023-05-19T12:29:14.637Z,48.83
2023-05-19T12:31:19.283Z,90.40
2023-05-19T12:33:24.397Z,90.83
2023-05-19T12:35:28.856Z,76.30
2023-05-19T12:37:33.207Z,99.50
2023-05-19T12:39:37.198Z,87.47
2023-05-19T12:41:40.287Z,82.63
2023-05-19T12:43:43.374Z,78.07
2023-05-19T12:45:46.489Z,85.43
2023-05-19T12:47:52.837Z,97.50
2023-05-19T12:49:56.859Z,94.20
2023-05-19T12:52:03.852Z,102.10
2023-05-19T12:54:08.460Z,77.97
2023-05-19T12:56:13.582Z,61.43
2023-05-19T12:58:16.963Z,138.83
2023-05-19T13:00:21.929Z,101.93
2023-05-19T13:02:25.912Z,87.07
2023-05-19T13:04:30.573Z,78.27
2023-05-19T13:06:33.818Z,97.53
2023-05-19T13:08:37.932Z,88.73
2023-05-19T13:10:42.639Z,126.50
2023-05-19T13:12:45.954Z,83.07
2023-05-19T13:14:49.086Z,100.60
2023-05-19T13:16:52.608Z,95.80
2023-05-19T13:18:55.825Z,72.97
2023-05-19T13:21:00.336Z,99.33
2023-05-19T13:23:04.823Z,94.07
2023-05-19T13:25:09.092Z,90.10
2023-05-19T13:27:13.260Z,68.63
2023-05-19T13:29:16.361Z,75.23
2023-05-19T13:31:19.831Z,62.63
2023-05-19T13:33:23.023Z,76.10
2023-05-19T13:35:26.402Z,93.13
2023-05-19T13:37:31.019Z,69.30
2023-05-19T13:39:34.114Z,119.93
2023-05-19T13:41:38.324Z,62.70
2023-05-19T13:43:41.489Z,86.87
2023-05-19T13:45:44.726Z,76.93
2023-05-19T13:47:47.862Z,86.93
2023-05-19T13:49:51.237Z,83.27
2023-05-19T13:51:57.191Z,82.20
2023-05-19T13:54:01.641Z,80.67
2023-05-19T13:56:05.011Z,115.97
2023-05-19T13:58:10.854Z,112.03
2023-05-19T14:00:14.813Z,90.43
2023-05-19T14:02:17.860Z,97.30
2023-05-19T14:04:21.447Z,75.37
2023-05-19T14:06:24.615Z,88.77
2023-05-19T14:08:28.188Z,87.83
2023-05-19T14:10:32.732Z,65.53
2023-05-19T14:12:44.969Z,76.27
2023-05-19T14:14:55.187Z,70.60
2023-05-19T14:16:58.304Z,87.63
2023-05-19T14:19:01.481Z,99.97
2023-05-19T14:21:04.804Z,98.70
2023-05-19T14:23:08.021Z,51.50
2023-05-19T14:25:11.361Z,84.50
2023-05-19T14:27:15.930Z,90.33
2023-05-19T14:29:19.051Z,93.53
2023-05-19T14:31:22.171Z,109.57
2023-05-19T14:33:25.827Z,84.20
2023-05-19T14:35:29.056Z,77.80
2023-05-19T14:37:32.501Z,78.03
2023-05-19T14:39:35.608Z,90.07
2023-05-19T14:41:38.719Z,88.70
2023-05-19T14:43:43.520Z,68.50
2023-05-19T14:45:46.903Z,78.27
2023-05-19T14:47:50.009Z,98.07
2023-05-19T14:49:53.058Z,78.93
2023-05-19T14:51:56.162Z,54.90
2023-05-19T14:54:00.246Z,75.47
2023-05-19T14:56:04.583Z,90.73
2023-05-19T14:58:23.690Z,78.33
2023-05-19T15:00:32.636Z,75.67
2023-05-19T15:02:36.003Z,62.97
2023-05-19T15:04:39.149Z,58.43
2023-05-19T15:06:42.238Z,66.33
2023-05-19T15:08:45.611Z,82.57
2023-05-19T15:10:49.680Z,73.43
2023-05-19T15:12:53.653Z,68.37
2023-05-19T15:14:56.831Z,76.90
2023-05-19T15:17:01.310Z,73.30
2023-05-19T15:19:04.505Z,87.30
2023-05-19T15:21:07.781Z,54.13
2023-05-19T15:23:10.965Z,59.83
2023-05-19T15:25:14.091Z,83.97
2023-05-19T15:27:17.176Z,73.57
2023-05-19T15:29:20.349Z,89.27
2023-05-19T15:31:23.620Z,71.83
2023-05-19T15:33:28.131Z,71.73
2023-05-19T15:35:33.467Z,84.63
2023-05-19T15:37:36.630Z,72.50
2023-05-19T15:39:40.323Z,72.70
2023-05-19T15:41:43.494Z,76.47
2023-05-19T15:43:47.121Z,66.40
2023-05-19T15:45:52.275Z,76.63
2023-05-19T15:47:56.197Z,76.97
2023-05-19T15:50:00.686Z,65.73
2023-05-19T15:52:04.648Z,98.33
2023-05-19T15:54:08.337Z,87.03
2023-05-19T15:56:11.530Z,66.40
2023-05-19T15:58:15.594Z,59.47
2023-05-19T16:00:18.784Z,54.40
2023-05-19T16:02:22.496Z,67.60
2023-05-19T16:04:25.695Z,65.90
2023-05-19T16:06:30.111Z,86.17
2023-05-19T16:08:33.225Z,75.03
2023-05-19T16:10:36.318Z,65.73
2023-05-19T16:12:39.417Z,69.23
2023-05-19T16:14:42.541Z,81.90
2023-05-19T16:16:45.604Z,71.40
2023-05-19T16:18:48.722Z,67.07
2023-05-19T16:20:51.915Z,84.80
2023-05-19T16:22:56.340Z,62.93
2023-05-19T16:24:59.477Z,78.40
2023-05-19T16:27:02.629Z,76.13
2023-05-19T16:29:05.793Z,62.80
2023-05-19T16:31:09.461Z,96.77
2023-05-19T16:33:13.125Z,83.60
2023-05-19T16:35:16.302Z,93.60
2023-05-19T16:37:19.421Z,64.30
2023-05-19T16:39:23.809Z,70.87
2023-05-19T16:41:27.612Z,67.23
2023-05-19T16:43:33.356Z,64.57
2023-05-19T16:45:36.475Z,68.63
2023-05-19T16:47:39.630Z,71.40
2023-05-19T16:49:44.603Z,67.93
2023-05-19T16:51:48.938Z,63.70
2023-05-19T16:53:52.175Z,83.97
2023-05-19T16:55:56.532Z,83.17
2023-05-19T16:58:00.120Z,67.73
2023-05-19T17:00:03.694Z,81.03
2023-05-19T17:02:07.096Z,80.30
2023-05-19T17:04:10.256Z,47.33
2023-05-19T17:06:13.316Z,66.53
2023-05-19T17:08:16.630Z,67.50
2023-05-19T17:10:19.896Z,80.27
2023-05-19T17:12:24.527Z,94.00
2023-05-19T17:14:27.581Z,63.23
2023-05-19T17:16:30.711Z,77.87
2023-05-19T17:18:33.826Z,71.33
2023-05-19T17:20:36.949Z,74.33
2023-05-19T17:22:40.020Z,4.32
2023-05-19T17:24:43.472Z,60.77
2023-05-19T17:26:46.550Z,60.97
2023-05-19T17:28:50.991Z,70.70
2023-05-19T17:30:54.094Z,80.83
2023-05-19T17:32:58.985Z,75.90
2023-05-19T17:35:03.116Z,81.17
2023-05-19T17:37:06.809Z,62.97
2023-05-19T17:39:09.911Z,43.50
2023-05-19T17:41:14.156Z,72.03
2023-05-19T17:43:17.411Z,56.43
2023-05-19T17:45:22.058Z,72.30
2023-05-19T17:47:25.336Z,84.33
2023-05-19T17:49:28.396Z,79.27
2023-05-19T17:51:31.861Z,60.63
2023-05-19T17:53:35.697Z,50.97
2023-05-19T17:55:39.419Z,102.27
2023-05-19T17:57:45.532Z,61.17
2023-05-19T17:59:49.197Z,63.17
2023-05-19T18:01:54.376Z,61.43
2023-05-19T18:03:58.056Z,68.80
2023-05-19T18:06:01.681Z,95.30
2023-05-19T18:08:07.129Z,71.07
2023-05-19T18:10:11.716Z,98.37
2023-05-19T18:12:15.410Z,83.03
2023-05-19T18:14:18.543Z,76.20
2023-05-19T18:16:21.659Z,72.77
2023-05-19T18:18:26.144Z,76.40
2023-05-19T18:20:30.926Z,91.97
2023-05-19T18:22:34.228Z,61.80
2023-05-19T18:24:37.366Z,109.40
2023-05-19T18:26:42.073Z,87.50
2023-05-19T18:28:45.508Z,96.40
2023-05-19T18:30:48.548Z,74.90
2023-05-19T18:32:51.748Z,65.03
2023-05-19T18:34:56.336Z,103.90
2023-05-19T18:36:59.571Z,80.67
2023-05-19T18:39:04.674Z,81.47
2023-05-19T18:41:08.101Z,72.63
2023-05-19T18:43:11.246Z,64.40
2023-05-19T18:45:14.353Z,96.73
2023-05-19T18:47:18.904Z,84.70
2023-05-19T18:49:22.016Z,75.27
2023-05-19T18:51:26.918Z,63.57
2023-05-19T18:53:30.102Z,80.00
2023-05-19T18:55:33.316Z,66.40
2023-05-19T18:57:36.588Z,94.67
2023-05-19T18:59:39.727Z,84.80
2023-05-19T19:01:43.139Z,73.23
2023-05-19T19:03:46.992Z,88.27
2023-05-19T19:05:55.097Z,89.90
2023-05-19T19:07:59.611Z,89.97
2023-05-19T19:10:02.754Z,89.60
2023-05-19T19:12:06.070Z,80.87
2023-05-19T19:14:10.281Z,62.33
2023-05-19T19:16:13.636Z,91.30
2023-05-19T19:18:16.981Z,75.77
2023-05-19T19:20:20.238Z,94.23
2023-05-19T19:22:23.402Z,69.53
2023-05-19T19:24:28.638Z,75.33
2023-05-19T19:26:31.724Z,119.80
2023-05-19T19:28:34.846Z,113.77
2023-05-19T19:30:37.950Z,92.47
2023-05-19T19:32:41.141Z,99.70
2023-05-19T19:34:44.308Z,110.10
2023-05-19T19:36:48.015Z,74.50
2023-05-19T19:38:51.237Z,100.97
2023-05-19T19:40:55.853Z,89.80
2023-05-19T19:42:59.154Z,99.03
2023-05-19T19:45:02.405Z,119.80
2023-05-19T19:47:06.494Z,129.37
2023-05-19T19:49:09.681Z,130.70
2023-05-19T19:51:12.937Z,107.57
2023-05-19T19:53:16.097Z,116.63
2023-05-19T19:55:19.196Z,143.73
2023-05-19T19:57:23.943Z,132.77
2023-05-19T19:59:27.241Z,116.73
2023-05-19T20:01:30.581Z,103.40
2023-05-19T20:03:34.352Z,159.03
2023-05-19T20:05:39.493Z,105.50
2023-05-19T20:07:42.570Z,146.37
2023-05-19T20:09:45.777Z,93.83
2023-05-19T20:11:48.870Z,122.70
2023-05-19T20:13:53.914Z,131.33
2023-05-19T20:15:57.802Z,128.80
2023-05-19T20:18:01.025Z,151.80
2023-05-19T20:20:09.850Z,94.33
2023-05-19T20:22:13.017Z,84.63
2023-05-19T20:24:16.136Z,106.23
2023-05-19T20:26:19.241Z,123.57
2023-05-19T20:28:24.115Z,124.43
2023-05-19T20:30:29.108Z,94.90
2023-05-19T20:32:33.370Z,84.60
2023-05-19T20:34:36.620Z,90.93
2023-05-19T20:36:39.910Z,98.53
2023-05-19T20:38:43.008Z,87.47
2023-05-19T20:40:46.039Z,112.97
2023-05-19T20:42:49.312Z,84.13
2023-05-19T20:44:52.757Z,130.57
2023-05-19T20:46:57.826Z,105.73
2023-05-19T20:49:00.981Z,111.47
2023-05-19T20:51:04.238Z,129.30
2023-05-19T20:53:07.790Z,93.17
2023-05-19T20:55:10.996Z,108.20
2023-05-19T20:57:14.196Z,97.73
2023-05-19T20:59:17.315Z,79.37
2023-05-19T21:01:20.571Z,80.43
2023-05-19T21:03:26.759Z,75.47
2023-05-19T21:05:30.130Z,89.17
2023-05-19T21:07:33.286Z,112.67
2023-05-19T21:09:36.386Z,83.00
2023-05-19T21:11:39.560Z,107.63
2023-05-19T21:13:43.381Z,102.50
2023-05-19T21:15:47.658Z,127.27
2023-05-19T21:17:50.915Z,109.57
2023-05-19T21:19:58.152Z,94.90
2023-05-19T21:22:01.516Z,108.73
2023-05-19T21:24:04.745Z,126.97
2023-05-19T21:26:07.842Z,98.43
2023-05-19T21:28:11.017Z,128.50
2023-05-19T21:30:14.468Z,117.63
2023-05-19T21:32:17.491Z,106.17
2023-05-19T21:34:20.613Z,108.57
2023-05-19T21:36:25.199Z,106.30
2023-05-19T21:38:28.511Z,102.87
2023-05-19T21:40:31.888Z,113.63
2023-05-19T21:42:35.407Z,144.63
2023-05-19T21:44:38.662Z,121.77
2023-05-19T21:46:41.779Z,98.87
2023-05-19T21:48:45.036Z,114.43
2023-05-19T21:50:53.729Z,101.87
2023-05-19T21:52:58.235Z,90.10
2023-05-19T21:55:01.334Z,83.97
2023-05-19T21:57:04.744Z,92.30
2023-05-19T21:59:08.055Z,108.40
2023-05-19T22:01:11.142Z,109.53
2023-05-19T22:03:14.436Z,112.63
2023-05-19T22:05:18.104Z,98.53
2023-05-19T22:07:26.703Z,109.23
2023-05-19T22:09:31.349Z,101.93
2023-05-19T22:11:34.723Z,101.10
2023-05-19T22:13:41.054Z,126.00
2023-05-19T22:15:44.208Z,95.90
2023-05-19T22:17:47.462Z,107.47
2023-05-19T22:19:50.631Z,95.30
2023-05-19T22:22:01.973Z,122.23
2023-05-19T22:24:13.198Z,106.97
2023-05-19T22:26:17.613Z,95.83
2023-05-19T22:28:20.714Z,109.60
2023-05-19T22:30:23.957Z,105.77
2023-05-19T22:32:27.233Z,90.67
2023-05-19T22:34:30.541Z,93.03
2023-05-19T22:36:33.776Z,125.23
2023-05-19T22:38:36.858Z,107.67
2023-05-19T22:40:40.050Z,110.67
2023-05-19T22:42:44.571Z,101.17
2023-05-19T22:44:47.864Z,108.33
2023-05-19T22:46:50.926Z,86.10
2023-05-19T22:48:54.022Z,95.70
2023-05-19T22:50:57.114Z,109.50
2023-05-19T22:53:00.527Z,93.77
2023-05-19T22:55:03.737Z,101.50
2023-05-19T22:57:07.083Z,115.43
2023-05-19T22:59:11.624Z,112.17
2023-05-19T23:01:14.795Z,83.33
2023-05-19T23:03:18.228Z,93.57
2023-05-19T23:05:21.370Z,129.57
2023-05-19T23:07:24.510Z,117.83
2023-05-19T23:09:28.196Z,71.73
2023-05-19T23:11:31.548Z,136.30
2023-05-19T23:13:34.668Z,94.53
2023-05-19T23:15:39.152Z,83.03
2023-05-19T23:17:42.290Z,131.80
2023-05-19T23:19:45.498Z,83.93
2023-05-19T23:21:49.228Z,101.70
2023-05-19T23:23:52.322Z,126.53
2023-05-19T23:25:55.486Z,106.40
2023-05-19T23:27:58.497Z,95.83
2023-05-19T23:30:01.889Z,98.20
2023-05-19T23:32:07.372Z,106.47
2023-05-19T23:34:10.587Z,121.70
2023-05-19T23:36:13.660Z,95.63
2023-05-19T23:38:17.033Z,126.77
2023-05-19T23:40:20.318Z,105.57
2023-05-19T23:42:23.406Z,140.67
2023-05-19T23:44:27.293Z,67.83
2023-05-19T23:46:31.447Z,96.80
2023-05-19T23:48:36.622Z,114.67
2023-05-19T23:50:39.714Z,117.03
2023-05-19T23:52:42.782Z,130.00
2023-05-19T23:54:46.000Z,91.90
2023-05-19T23:56:49.247Z,144.23
2023-05-19T23:58:52.522Z,107.30
